• Join FlightAware (Why Join?)
  • Login
  • US Flag 
03:13AM EDT


 

Airport Tracker/Info


-or-


 

Live Flight TrackerFlight Track Log ✈ ENY3688 ✈ 07-Jul-2014 ✈ KMIA - KEYW

Flight Track Log - Related Links

Times and Time Zones

All times are in EDT time to prevent confusion due to time zone crossing. See the ENY3688 flight status page for this flight to view local times or setup timezone preferences in your user account.

Time Position Orientation Groundspeed Altitude Reporting Facility
EDT Latitude Longitude Course Direction KTS MPH feet Rate Location/Type
06:07PM 25.8011 -80.2722 209° Southwest 147 169 600  Level Miami Center
06:07PM 25.7983 -80.2619 107° East 156 180 1,100 2,100 Climbing Miami Center
06:08PM 25.7739 -80.2078 117° Southeast 214 246 3,200 2,340 Climbing Miami Center
06:09PM 25.7183 -80.1894 163° South 219 252 5,700 2,580 Climbing Miami Center
06:10PM 25.6066 -80.2230 209° Southwest  Level FlightAware Approximate
06:10PM 25.6664 -80.1833 174° South 228 262 8,000  Level Miami Center
06:10PM 25.6572 -80.1833 180° South 223 257 8,300 2,220 Climbing Miami Center
06:11PM 25.5228 -80.2754 209° Southwest  Level FlightAware Approximate
06:11PM 25.6114 -80.2275 221° Southwest 228 262 10,500  Level Miami Center
06:11PM 25.6081 -80.2303 217° Southwest 231 266 10,600 1,800 Climbing Miami Center
06:12PM 25.4390 -80.3277 209° Southwest  Level FlightAware Approximate
06:12PM 25.5469 -80.2972 225° Southwest 254 292 12,800  Level Miami Center
06:14PM 25.4931 -80.3575 225° Southwest 266 306 15,000 1,620 Climbing Miami Center
06:15PM 25.4250 -80.4019 211° Southwest 284 327 16,200 900 Climbing Miami Center
06:16PM 25.3514 -80.4486 210° Southwest 298 343 16,900 300 Climbing Miami Center
06:17PM 25.2731 -80.4994 210° Southwest 324 373 16,900  Level Miami Center
06:18PM 25.1922 -80.5517 210° Southwest 333 383 16,900  Level Miami Center
06:19PM 25.1111 -80.6022 209° Southwest 333 383 16,900 -120 Level Miami Center
06:20PM 25.0325 -80.6531 210° Southwest 332 382 16,700 -600 Descending Miami Center
06:21PM 24.9622 -80.7081 215° Southwest 315 362 15,700 -1,020 Descending Miami Center
06:22PM 24.8900 -80.7631 215° Southwest 307 353 14,700 -1,320 Descending Miami Center
06:23PM 24.8081 -80.8283 216° Southwest 307 353 13,100 -1,560 Descending Miami Center
06:24PM 24.7397 -80.8808 215° Southwest 304 350 11,600 -1,440 Descending Miami Center
06:25PM 24.6750 -80.9292 214° Southwest 288 331 10,200 -840 Descending Miami Center
06:26PM 24.6117 -80.9797 216° Southwest 282 325 9,900 -180 Descending Miami Center
06:27PM 24.5822 -81.0581 248° West 289 333 9,900 -600 Level Miami Center
06:28PM 24.5636 -81.1406 256° West 282 325 8,700 -1,140 Descending Miami Center
06:29PM 24.5442 -81.2194 255° West 272 313 7,600 -1,080 Descending Miami Center
06:30PM 24.5269 -81.2986 257° West 271 312 6,600 -1,140 Descending Miami Center
06:31PM 24.5039 -81.3925 255° West 269 310 5,300 -960 Descending Miami Center
06:32PM 24.4886 -81.4694 258° West 262 302 4,700 -1,020 Descending Miami Center
06:33PM 24.4956 -81.5494 275° West 260 299 3,300 -1,320 Descending Miami Center
06:34PM 24.5017 -81.6317 275° West 262 302 2,000 -900 Descending Miami Center
06:35PM 24.5172 -81.7056 283° West 247 284 1,500 -300 Descending Miami Center
06:36PM 24.5203 -81.7717 273° West 223 257 1,500 -180 Level Miami Center
06:37PM 24.5311 -81.8150 285° West 181 208 1,200 -540 Descending Miami Center
06:38PM 24.5556 -81.7936 39° Northeast 156 180 500 -720 Descending Miami Center